North Broadalbin, New York
Current Conditions -  °F | °C
As of 12:15 AM on Sunday 26 Oct 2014 (Local Time) from KNY0 Reporting Station
Scattered Clouds Scattered Clouds  
Wind Chill: 44°   Ceiling: Unl
Heat Index: 47°   Visibility: 7mi
Dew Point: 45°   Wind: 7mph
Humidity: 92%   Direction: 240°WSW
Pressure: 29.51"   Gusts: NA
Location:  43.0744°N, 74.1473°W
Report Text: KNY0 260415Z AUTO 24006KT 7SM SCT034 SCT042 SCT055 08/07 A2951 RMK AO2 T00840071
Loading
Personal Weather Stations






























Interactive Weather Map
Tropical Storm Tracking
New forecast layout! Learn more

10-Day Weather Forecast

Advertisements
Track Severe Weather on mobile